Time;durP1;ratioP1;P1;durP2;ratioP2;P2;SDS_P1;SDS_P2;PMS_P1;PMS_P2;Temp;Humidity;BMP_temperature;BMP_pressure;BME280_temperature;BME280_humidity;BME280_pressure;Samples;Min_cycle;Max_cycle;Signal;HPM_P1;HPM_P2
2021/03/27 00:02:22;;;;;;;138.40;98.97;;;5.60;99.90;;;;;;5074097;28;20376;-84
2021/03/27 00:05:19;;;;;;;135.00;99.13;;;5.70;99.90;;;;;;5019849;28;20456;-83
2021/03/27 00:07:59;;;;;;;137.48;99.60;;;5.70;99.90;;;;;;5110121;28;20378;-84
2021/03/27 00:10:30;;;;;;;135.90;100.50;;;5.70;99.90;;;;;;5105487;28;20415;-87
2021/03/27 00:13:28;;;;;;;136.35;99.57;;;5.70;99.90;;;;;;5070833;28;20399;-86
2021/03/27 00:16:16;;;;;;;130.93;97.55;;;5.70;99.90;;;;;;5067689;28;20388;-86
2021/03/27 00:18:57;;;;;;;140.85;100.85;;;5.70;99.90;;;;;;5087251;28;20380;-87
2021/03/27 00:21:31;;;;;;;141.33;100.60;;;5.70;99.90;;;;;;5085928;28;20438;-86
2021/03/27 00:24:03;;;;;;;137.30;97.70;;;5.70;99.90;;;;;;5069480;28;20387;-86
2021/03/27 00:26:41;;;;;;;132.55;94.63;;;5.70;99.90;;;;;;5072268;28;20457;-86
2021/03/27 00:29:13;;;;;;;125.07;94.32;;;5.80;99.90;;;;;;5090207;28;20460;-85
2021/03/27 00:32:04;;;;;;;120.50;92.50;;;5.80;99.90;;;;;;5090073;28;20368;-86
2021/03/27 00:34:36;;;;;;;135.73;99.17;;;5.70;99.90;;;;;;5090227;28;20856;-86
2021/03/27 00:37:05;;;;;;;137.45;97.43;;;5.60;99.90;;;;;;5071509;28;20419;-85
2021/03/27 00:39:51;;;;;;;134.23;96.95;;;5.60;99.90;;;;;;5089399;28;20380;-85
2021/03/27 00:42:29;;;;;;;128.10;95.93;;;5.60;99.90;;;;;;5090561;28;20846;-86
2021/03/27 00:45:08;;;;;;;140.15;99.10;;;5.60;99.90;;;;;;5071595;28;20384;-85
2021/03/27 00:47:38;;;;;;;133.38;98.50;;;5.60;99.90;;;;;;5070607;28;20739;-85
2021/03/27 00:50:19;;;;;;;127.85;95.35;;;5.60;99.90;;;;;;5070441;28;20391;-87
2021/03/27 00:52:55;;;;;;;128.52;94.28;;;5.60;99.90;;;;;;5088039;28;20368;-86
2021/03/27 00:55:44;;;;;;;138.30;100.68;;;5.60;99.90;;;;;;5087986;28;20425;-83
2021/03/27 00:58:15;;;;;;;133.35;98.57;;;5.60;99.90;;;;;;5087482;28;20408;-85
2021/03/27 01:00:46;;;;;;;134.63;99.65;;;5.60;99.90;;;;;;5089572;28;20377;-84
2021/03/27 01:03:20;;;;;;;126.15;93.95;;;5.60;99.90;;;;;;5072005;28;20401;-84
2021/03/27 01:05:49;;;;;;;130.43;93.35;;;5.60;99.90;;;;;;5085557;28;20376;-87
2021/03/27 01:08:17;;;;;;;126.22;93.65;;;5.60;99.90;;;;;;5088658;28;20376;-87
2021/03/27 01:10:46;;;;;;;121.50;91.35;;;5.60;99.90;;;;;;5089197;28;20407;-85
2021/03/27 01:13:17;;;;;;;127.50;92.90;;;5.60;99.90;;;;;;5088770;28;20395;-86
2021/03/27 01:15:50;;;;;;;131.70;94.20;;;5.60;99.90;;;;;;5070067;28;20387;-86
2021/03/27 01:18:22;;;;;;;127.38;91.82;;;5.50;99.90;;;;;;5070194;28;20503;-86
2021/03/27 01:20:52;;;;;;;118.82;87.13;;;5.60;99.90;;;;;;5068657;28;20418;-87
2021/03/27 01:23:18;;;;;;;121.10;89.68;;;5.60;99.90;;;;;;5070155;28;20811;-85
2021/03/27 01:25:44;;;;;;;132.90;96.47;;;5.60;99.90;;;;;;5070919;28;20414;-86
2021/03/27 01:28:28;;;;;;;130.63;97.47;;;5.60;99.90;;;;;;5069983;28;20387;-87
2021/03/27 01:31:05;;;;;;;138.80;105.50;;;5.50;99.90;;;;;;5093933;28;20381;-86
2021/03/27 01:33:55;;;;;;;128.40;97.43;;;5.50;99.90;;;;;;5093174;28;20452;-86
2021/03/27 01:36:25;;;;;;;127.38;95.18;;;5.50;99.90;;;;;;5066054;28;20433;-85
2021/03/27 01:38:50;;;;;;;133.15;98.15;;;5.40;99.90;;;;;;5089047;28;20433;-87
2021/03/27 01:41:28;;;;;;;124.32;96.05;;;5.40;99.90;;;;;;5070556;28;20870;-86
2021/03/27 01:44:05;;;;;;;131.73;96.88;;;5.30;99.90;;;;;;5071030;28;20429;-87
2021/03/27 01:47:14;;;;;;;128.70;95.18;;;5.30;99.90;;;;;;5089254;28;20383;-87
2021/03/27 01:49:51;;;;;;;123.35;93.75;;;5.20;99.90;;;;;;5071136;28;21223;-85
2021/03/27 01:52:33;;;;;;;121.23;91.27;;;5.20;99.90;;;;;;5070406;28;20391;-84
2021/03/27 01:55:21;;;;;;;120.68;87.45;;;5.20;99.90;;;;;;5070688;28;20376;-85
2021/03/27 01:58:11;;;;;;;120.70;89.10;;;5.10;99.90;;;;;;5070651;28;20400;-87
2021/03/27 02:00:48;;;;;;;131.88;94.93;;;5.10;99.90;;;;;;5070366;28;20403;-85
2021/03/27 02:03:23;;;;;;;122.50;89.78;;;5.10;99.90;;;;;;5071489;28;20415;-86
2021/03/27 02:06:06;;;;;;;116.82;86.95;;;5.10;99.90;;;;;;5070732;28;20414;-88
2021/03/27 02:08:46;;;;;;;120.93;89.20;;;5.10;99.90;;;;;;5070801;28;20384;-86
2021/03/27 02:11:50;;;;;;;118.38;86.80;;;5.10;99.90;;;;;;5070528;28;20450;-84
2021/03/27 02:14:41;;;;;;;113.00;83.28;;;5.10;99.90;;;;;;5040693;28;20376;-85
2021/03/27 02:17:26;;;;;;;113.32;83.97;;;5.30;99.90;;;;;;5070127;28;21220;-85
2021/03/27 02:20:17;;;;;;;113.55;84.97;;;5.40;99.90;;;;;;5088505;28;20378;-83
2021/03/27 02:22:45;;;;;;;104.93;78.17;;;5.40;99.90;;;;;;5070634;28;20448;-88
2021/03/27 02:25:49;;;;;;;111.43;82.53;;;5.50;99.90;;;;;;5070732;28;21019;-86
2021/03/27 02:28:46;;;;;;;102.80;78.10;;;5.60;99.90;;;;;;5065264;28;20867;-84
2021/03/27 02:31:33;;;;;;;100.72;77.55;;;5.80;99.90;;;;;;5068465;28;20372;-85
2021/03/27 02:34:23;;;;;;;99.22;77.20;;;5.90;99.90;;;;;;5070505;28;20384;-86
2021/03/27 02:36:51;;;;;;;97.07;74.55;;;6.00;99.90;;;;;;5069484;28;20407;-87
2021/03/27 02:39:25;;;;;;;99.97;75.40;;;6.00;99.90;;;;;;5088354;28;20372;-86
2021/03/27 02:42:02;;;;;;;98.82;74.57;;;6.10;99.90;;;;;;5070589;28;20488;-85
2021/03/27 02:44:31;;;;;;;97.88;74.38;;;6.10;99.90;;;;;;5071255;28;20372;-85
2021/03/27 02:47:10;;;;;;;99.90;76.00;;;6.10;99.90;;;;;;5069858;28;20942;-86
2021/03/27 02:50:10;;;;;;;95.40;73.40;;;6.10;99.90;;;;;;5070552;28;20874;-85
2021/03/27 02:52:52;;;;;;;92.90;72.78;;;6.00;99.90;;;;;;5052521;28;20423;-86
2021/03/27 02:55:42;;;;;;;100.85;74.70;;;6.00;99.90;;;;;;5088569;28;20376;-84
2021/03/27 02:58:26;;;;;;;101.90;74.72;;;6.00;99.90;;;;;;5069934;28;20404;-85
2021/03/27 03:01:01;;;;;;;94.82;73.63;;;6.00;99.90;;;;;;5070234;28;20380;-84
2021/03/27 03:04:01;;;;;;;96.38;71.20;;;6.00;99.90;;;;;;5071339;28;20379;-87
2021/03/27 03:06:45;;;;;;;91.67;70.63;;;6.00;99.90;;;;;;5074233;28;20826;-84
2021/03/27 03:09:18;;;;;;;96.90;73.03;;;6.10;99.90;;;;;;5092033;28;20372;-85
2021/03/27 03:12:13;;;;;;;86.95;67.18;;;6.10;99.90;;;;;;5092011;28;20935;-86
2021/03/27 03:15:15;;;;;;;94.55;71.90;;;6.20;99.90;;;;;;5092316;28;20422;-85
2021/03/27 03:17:44;;;;;;;87.20;69.85;;;6.20;99.90;;;;;;5091553;28;20508;-86
2021/03/27 03:20:42;;;;;;;94.85;73.63;;;6.20;99.90;;;;;;5073561;28;20735;-86
2021/03/27 03:23:18;;;;;;;96.15;73.70;;;6.20;99.90;;;;;;5073469;28;20383;-84
2021/03/27 03:25:58;;;;;;;92.53;70.72;;;6.10;99.90;;;;;;5073323;28;20381;-85
2021/03/27 03:28:41;;;;;;;95.32;70.57;;;6.10;99.90;;;;;;5091550;28;20392;-87
2021/03/27 03:31:18;;;;;;;84.40;67.67;;;6.10;99.90;;;;;;5091707;28;20534;-86
2021/03/27 03:34:02;;;;;;;85.40;68.35;;;6.10;99.90;;;;;;5091681;28;20455;-86
2021/03/27 03:36:43;;;;;;;86.82;65.90;;;6.10;99.90;;;;;;5073373;28;20383;-85
2021/03/27 03:39:34;;;;;;;86.60;65.50;;;6.10;99.90;;;;;;5072861;28;20838;-85
2021/03/27 03:42:11;;;;;;;85.80;67.00;;;6.10;99.90;;;;;;5073275;28;20448;-86
2021/03/27 03:44:55;;;;;;;82.22;65.30;;;6.10;99.90;;;;;;5073206;28;20424;-86
2021/03/27 03:48:02;;;;;;;79.20;63.97;;;6.10;99.90;;;;;;5072695;28;20800;-86
2021/03/27 03:50:46;;;;;;;81.57;63.80;;;6.10;99.90;;;;;;5073116;28;20387;-85
2021/03/27 03:53:38;;;;;;;82.90;64.37;;;6.10;99.90;;;;;;5073111;28;20400;-85
2021/03/27 03:56:18;;;;;;;82.35;63.70;;;6.10;99.90;;;;;;5072754;28;20377;-85
2021/03/27 03:58:59;;;;;;;81.85;63.90;;;6.00;99.90;;;;;;5072530;28;20399;-87
2021/03/27 04:01:54;;;;;;;87.70;66.30;;;6.00;99.90;;;;;;5072524;28;20388;-85
2021/03/27 04:04:34;;;;;;;86.07;66.03;;;5.90;99.90;;;;;;5090963;28;20369;-85
2021/03/27 04:07:07;;;;;;;88.22;66.40;;;5.90;99.90;;;;;;5090022;28;20380;-84
2021/03/27 04:09:45;;;;;;;83.18;65.07;;;5.90;99.90;;;;;;5072475;28;20388;-85
2021/03/27 04:12:22;;;;;;;78.50;61.13;;;6.00;99.90;;;;;;5072216;28;20468;-84
2021/03/27 04:15:17;;;;;;;82.07;63.20;;;6.00;99.90;;;;;;5072574;28;20388;-84
2021/03/27 04:18:21;;;;;;;79.63;61.50;;;6.10;99.90;;;;;;5072036;28;20514;-85
2021/03/27 04:20:50;;;;;;;79.30;61.30;;;6.20;99.90;;;;;;5017859;28;20449;-85
2021/03/27 04:23:43;;;;;;;78.35;60.33;;;6.20;99.90;;;;;;5072230;28;20882;-85
2021/03/27 04:26:15;;;;;;;75.35;59.53;;;6.30;99.90;;;;;;5072021;28;20731;-83
2021/03/27 04:28:56;;;;;;;73.32;57.65;;;6.30;99.90;;;;;;5071884;28;20372;-84
2021/03/27 04:31:37;;;;;;;78.53;59.42;;;6.30;99.90;;;;;;5071926;28;20380;-86
2021/03/27 04:34:22;;;;;;;72.90;57.95;;;6.30;99.90;;;;;;5090159;28;20468;-83
2021/03/27 04:37:06;;;;;;;76.68;58.28;;;6.20;99.90;;;;;;5090284;28;20404;-84
2021/03/27 04:39:39;;;;;;;72.22;57.05;;;6.20;99.90;;;;;;5072252;28;20377;-86
2021/03/27 04:42:20;;;;;;;73.43;58.42;;;6.10;99.90;;;;;;5090190;28;20377;-84
2021/03/27 04:44:46;;;;;;;77.85;59.53;;;6.00;99.90;;;;;;5071916;28;20939;-83
2021/03/27 04:47:24;;;;;;;71.50;56.97;;;6.00;99.90;;;;;;5089479;28;20460;-85
2021/03/27 04:49:59;;;;;;;69.20;55.23;;;6.00;99.90;;;;;;5071807;28;20450;-84
2021/03/27 04:52:41;;;;;;;71.15;56.22;;;6.00;99.90;;;;;;5071597;28;20376;-86
2021/03/27 04:55:43;;;;;;;69.32;55.38;;;6.00;99.90;;;;;;5090248;28;20731;-85
2021/03/27 04:58:44;;;;;;;69.73;55.47;;;6.00;99.90;;;;;;5089258;28;20586;-84
2021/03/27 05:01:47;;;;;;;67.97;53.22;;;5.90;99.90;;;;;;5082523;28;20385;-84
2021/03/27 05:04:27;;;;;;;66.00;54.78;;;5.90;99.90;;;;;;5071481;28;21000;-85
2021/03/27 05:07:09;;;;;;;67.93;52.70;;;5.90;99.90;;;;;;5071152;28;20380;-85
2021/03/27 05:10:02;;;;;;;68.35;53.72;;;5.80;99.90;;;;;;5071377;28;20372;-85
2021/03/27 05:12:52;;;;;;;64.63;53.03;;;5.70;99.90;;;;;;5071434;28;20492;-84
2021/03/27 05:15:25;;;;;;;66.43;52.65;;;5.70;99.90;;;;;;5089427;28;20383;-83
2021/03/27 05:18:10;;;;;;;66.03;51.53;;;5.60;99.90;;;;;;5089412;28;20458;-84
2021/03/27 05:20:39;;;;;;;63.80;51.20;;;5.60;99.90;;;;;;5089469;28;20382;-85
2021/03/27 05:23:04;;;;;;;63.42;50.90;;;5.60;99.90;;;;;;5071065;28;20388;-85
2021/03/27 05:25:51;;;;;;;60.00;48.97;;;5.70;99.90;;;;;;5071198;28;20383;-85
2021/03/27 05:28:26;;;;;;;59.25;47.65;;;5.80;99.90;;;;;;5088848;28;20858;-84
2021/03/27 05:31:27;;;;;;;59.85;47.42;;;5.90;99.90;;;;;;5089314;28;20369;-86
2021/03/27 05:34:19;;;;;;;54.93;44.40;;;6.00;99.90;;;;;;5071042;28;20377;-85
2021/03/27 05:37:16;;;;;;;51.63;43.50;;;6.20;99.90;;;;;;5084323;28;20444;-85
2021/03/27 05:39:55;;;;;;;53.40;42.17;;;6.40;99.90;;;;;;5070930;28;20369;-86
2021/03/27 05:42:42;;;;;;;45.88;39.10;;;6.50;99.90;;;;;;5070784;28;20742;-83
2021/03/27 05:45:26;;;;;;;44.20;36.90;;;6.70;99.90;;;;;;5070854;28;20411;-84
2021/03/27 05:48:22;;;;;;;42.50;35.45;;;6.90;99.90;;;;;;5070419;28;20747;-84
2021/03/27 05:51:20;;;;;;;40.47;35.17;;;7.30;99.90;;;;;;5070579;28;20408;-84
2021/03/27 05:53:46;;;;;;;44.53;34.08;;;7.50;99.90;;;;;;5088851;28;20372;-86
2021/03/27 05:56:40;;;;;;;39.07;33.10;;;7.70;99.90;;;;;;5070583;28;20413;-86
2021/03/27 05:59:34;;;;;;;41.20;32.97;;;7.90;99.90;;;;;;5070310;28;20388;-85
2021/03/27 06:02:26;;;;;;;41.22;34.00;;;8.00;99.90;;;;;;5070478;28;20495;-85
2021/03/27 06:05:23;;;;;;;39.25;33.17;;;8.20;99.90;;;;;;5088730;28;20377;-85
2021/03/27 06:08:26;;;;;;;39.20;33.15;;;8.20;99.90;;;;;;5069926;28;20388;-85
2021/03/27 06:11:11;;;;;;;36.45;30.90;;;8.30;99.90;;;;;;5070476;28;20392;-85
2021/03/27 06:14:09;;;;;;;39.45;31.60;;;8.30;99.90;;;;;;5088350;28;20958;-84
2021/03/27 06:16:48;;;;;;;36.38;30.98;;;8.30;99.90;;;;;;5088166;28;20387;-86
2021/03/27 06:19:35;;;;;;;37.45;30.63;;;8.30;99.90;;;;;;5088300;28;20408;-85
2021/03/27 06:22:19;;;;;;;38.28;30.88;;;8.40;99.90;;;;;;5070226;28;20426;-85
2021/03/27 06:25:02;;;;;;;32.53;27.90;;;8.70;99.90;;;;;;5088327;28;20372;-85
2021/03/27 06:27:44;;;;;;;32.03;26.50;;;9.10;99.90;;;;;;5069923;28;20973;-86
2021/03/27 06:30:30;;;;;;;33.65;26.35;;;9.60;99.90;;;;;;5088597;28;20919;-85
2021/03/27 06:33:14;;;;;;;31.13;27.13;;;10.00;99.90;;;;;;5070247;28;20471;-84
2021/03/27 06:36:00;;;;;;;33.53;27.52;;;10.10;99.90;;;;;;5070141;28;20410;-85
2021/03/27 06:38:35;;;;;;;30.17;26.42;;;10.20;99.90;;;;;;5070354;28;20400;-85
2021/03/27 06:41:28;;;;;;;32.53;27.10;;;10.10;99.90;;;;;;5092288;28;20889;-84
2021/03/27 06:44:12;;;;;;;33.20;26.60;;;10.00;99.90;;;;;;5092389;28;20826;-84
2021/03/27 06:47:14;;;;;;;34.75;27.27;;;9.90;99.90;;;;;;5074350;28;20415;-84
2021/03/27 06:50:03;;;;;;;33.20;27.93;;;9.90;99.90;;;;;;5092031;28;20380;-85
2021/03/27 06:52:47;;;;;;;30.38;26.02;;;9.90;99.90;;;;;;5073927;28;20383;-85
2021/03/27 06:55:49;;;;;;;30.45;25.77;;;9.90;99.90;;;;;;5092087;28;20384;-84
2021/03/27 06:58:35;;;;;;;32.78;26.48;;;10.00;99.90;;;;;;5091343;28;20426;-85
2021/03/27 07:01:26;;;;;;;29.20;25.83;;;10.00;99.90;;;;;;5073705;28;20423;-85
2021/03/27 07:04:19;;;;;;;30.67;25.27;;;10.00;99.90;;;;;;5092025;28;20369;-86
2021/03/27 07:07:00;;;;;;;27.85;24.05;;;10.00;99.90;;;;;;5073832;28;20376;-85
2021/03/27 07:10:04;;;;;;;31.88;24.52;;;10.00;99.90;;;;;;5076523;28;20725;-84
2021/03/27 07:12:43;;;;;;;26.33;23.52;;;10.00;99.90;;;;;;5092404;28;20465;-85
2021/03/27 07:15:18;;;;;;;26.13;23.08;;;10.10;99.90;;;;;;5077883;28;20376;-85
2021/03/27 07:18:11;;;;;;;26.83;23.07;;;10.20;99.90;;;;;;5072974;28;20435;-85
2021/03/27 07:20:55;;;;;;;25.40;22.55;;;10.20;99.90;;;;;;5092056;28;20479;-86
2021/03/27 07:24:01;;;;;;;27.43;21.80;;;10.20;99.90;;;;;;5073108;28;20531;-84
2021/03/27 07:26:29;;;;;;;26.30;19.20;;;10.10;99.90;;;;;;5053594;28;20379;-84
2021/03/27 07:29:08;;;;;;;24.70;19.05;;;9.90;99.90;;;;;;5060200;28;20368;-85
2021/03/27 07:32:01;;;;;;;23.52;20.10;;;9.90;99.90;;;;;;5073609;28;20380;-85
2021/03/27 07:34:51;;;;;;;24.00;19.95;;;9.90;99.90;;;;;;5073498;28;20937;-85
2021/03/27 07:37:32;;;;;;;22.20;19.70;;;9.80;99.90;;;;;;5073120;28;20526;-85
2021/03/27 07:40:27;;;;;;;22.02;18.83;;;9.90;99.90;;;;;;5073286;28;20384;-86
2021/03/27 07:43:07;;;;;;;21.30;18.88;;;9.90;99.90;;;;;;5071074;28;20382;-84
2021/03/27 07:46:11;;;;;;;21.60;19.40;;;9.80;99.90;;;;;;5053170;28;20382;-85
2021/03/27 07:48:54;;;;;;;22.95;19.90;;;9.80;99.90;;;;;;5052798;28;20390;-85
2021/03/27 07:51:51;;;;;;;20.05;17.90;;;9.70;99.90;;;;;;5070918;28;20370;-85
2021/03/27 07:54:38;;;;;;;14.77;13.18;;;9.60;99.90;;;;;;5053005;28;20389;-85
2021/03/27 07:57:12;;;;;;;7.97;6.03;;;9.40;99.90;;;;;;5070883;28;20494;-84
2021/03/27 07:59:49;;;;;;;6.60;5.30;;;9.30;99.90;;;;;;5089582;28;20423;-86
2021/03/27 08:02:42;;;;;;;4.60;3.22;;;9.00;99.90;;;;;;5072533;28;20389;-83
2021/03/27 08:05:46;;;;;;;3.88;3.05;;;8.80;99.90;;;;;;5072347;28;20862;-85
2021/03/27 08:08:41;;;;;;;5.85;2.70;;;8.40;99.90;;;;;;5097346;28;20386;-84
2021/03/27 08:11:30;;;;;;;4.45;2.78;;;7.90;99.90;;;;;;5084871;27;20434;-84
2021/03/27 08:14:07;;;;;;;2.67;2.35;;;7.80;99.90;;;;;;5090486;28;20745;-83
2021/03/27 08:16:58;;;;;;;3.17;2.27;;;7.70;99.90;;;;;;5071385;28;20396;-84
2021/03/27 08:19:39;;;;;;;2.40;2.00;;;7.50;99.90;;;;;;5061668;28;20494;-83
2021/03/27 08:22:06;;;;;;;2.28;1.90;;;7.50;99.90;;;;;;5070860;28;20377;-84
2021/03/27 08:25:05;;;;;;;2.35;2.05;;;7.40;99.90;;;;;;5094210;28;20899;-84
2021/03/27 08:27:50;;;;;;;3.50;2.13;;;7.30;99.90;;;;;;5081152;28;20380;-84
2021/03/27 08:30:42;;;;;;;2.53;2.15;;;7.30;99.90;;;;;;5089904;28;20472;-84
2021/03/27 08:33:32;;;;;;;2.38;1.80;;;7.20;99.90;;;;;;5090042;28;20419;-85
2021/03/27 08:36:21;;;;;;;4.13;2.47;;;7.10;99.90;;;;;;5071574;28;20397;-86
2021/03/27 08:39:23;;;;;;;3.35;2.90;;;6.90;99.90;;;;;;5071643;28;20404;-84
2021/03/27 08:42:07;;;;;;;3.97;2.67;;;6.90;99.90;;;;;;5105896;28;20465;-84
2021/03/27 08:45:00;;;;;;;2.80;2.60;;;6.80;99.90;;;;;;5096063;28;20457;-84
2021/03/27 08:48:12;;;;;;;3.65;2.90;;;6.80;99.90;;;;;;5085029;28;20465;-84
2021/03/27 08:51:07;;;;;;;3.50;2.80;;;6.90;99.90;;;;;;5069805;28;20375;-84
2021/03/27 08:53:55;;;;;;;3.50;2.73;;;7.10;99.90;;;;;;5057395;28;20376;-84
2021/03/27 08:56:40;;;;;;;4.50;3.58;;;7.20;99.90;;;;;;5096333;28;20367;-84
2021/03/27 08:59:20;;;;;;;3.20;2.85;;;7.40;99.90;;;;;;5092068;28;20394;-84
2021/03/27 09:02:20;;;;;;;3.60;3.13;;;7.50;99.90;;;;;;5102669;28;20377;-84
2021/03/27 09:05:10;;;;;;;3.60;2.88;;;7.60;99.90;;;;;;5071931;28;20384;-85
2021/03/27 09:07:41;;;;;;;3.33;3.03;;;7.60;99.90;;;;;;5071234;28;20404;-83
2021/03/27 09:10:30;;;;;;;3.65;3.17;;;7.70;99.90;;;;;;5071218;28;20380;-83
2021/03/27 09:13:26;;;;;;;3.10;2.80;;;7.70;99.90;;;;;;5089624;28;20490;-83
2021/03/27 09:16:32;;;;;;;4.07;2.97;;;8.00;99.90;;;;;;5084908;28;20461;-82
2021/03/27 09:19:22;;;;;;;3.00;2.70;;;8.10;99.90;;;;;;5077517;28;20390;-81
2021/03/27 09:22:22;;;;;;;4.72;3.40;;;8.20;99.90;;;;;;5087995;28;20384;-83
2021/03/27 09:25:13;;;;;;;4.70;2.75;;;8.20;99.90;;;;;;5082458;28;20998;-86
2021/03/27 09:28:04;;;;;;;3.00;2.70;;;8.20;99.90;;;;;;5080242;28;20468;-81
2021/03/27 09:30:57;;;;;;;3.15;2.85;;;8.30;99.90;;;;;;5088024;28;20396;-83
2021/03/27 09:33:30;;;;;;;2.90;2.70;;;8.40;99.90;;;;;;5087747;28;20416;-84
2021/03/27 09:36:17;;;;;;;3.20;2.78;;;8.50;99.90;;;;;;5067614;28;20435;-83
2021/03/27 09:38:49;;;;;;;3.42;3.17;;;8.70;99.90;;;;;;5068992;28;20457;-84
2021/03/27 09:41:33;;;;;;;3.53;3.22;;;8.60;99.90;;;;;;5088882;28;20376;-83
2021/03/27 09:44:38;;;;;;;3.50;3.22;;;8.60;99.90;;;;;;5077273;28;20465;-85
2021/03/27 09:47:27;;;;;;;3.30;3.00;;;8.70;99.90;;;;;;4991847;28;20552;-84
2021/03/27 09:50:02;;;;;;;2.92;2.72;;;9.00;99.90;;;;;;5092594;28;20385;-87
2021/03/27 09:52:46;;;;;;;4.05;3.60;;;9.30;99.90;;;;;;5085782;28;20380;-82
2021/03/27 09:55:33;;;;;;;4.88;3.40;;;9.50;99.90;;;;;;5066900;28;20463;-81
2021/03/27 09:58:24;;;;;;;3.38;3.10;;;9.60;99.90;;;;;;5085410;28;20408;-82
2021/03/27 10:01:12;;;;;;;4.28;3.47;;;9.80;99.90;;;;;;5068539;28;20746;-84
2021/03/27 10:04:02;;;;;;;4.10;3.70;;;9.90;99.90;;;;;;5087138;28;20444;-83
2021/03/27 10:06:38;;;;;;;4.40;4.00;;;9.80;99.90;;;;;;5078094;28;20411;-82
2021/03/27 10:09:09;;;;;;;4.88;4.38;;;9.80;99.90;;;;;;5069430;28;20384;-84
2021/03/27 10:11:40;;;;;;;5.20;4.07;;;9.90;99.90;;;;;;5063048;28;20411;-81
2021/03/27 10:14:23;;;;;;;5.15;4.68;;;10.00;99.90;;;;;;5080438;28;20403;-84
2021/03/27 10:16:56;;;;;;;5.50;5.00;;;9.90;99.90;;;;;;5082567;28;20515;-83
2021/03/27 10:19:35;;;;;;;5.50;5.10;;;9.80;99.90;;;;;;5081440;28;20552;-82
2021/03/27 10:22:28;;;;;;;4.30;3.92;;;9.20;99.90;;;;;;5084590;28;20389;-85
2021/03/27 10:25:06;;;;;;;3.85;2.50;;;9.00;99.90;;;;;;5066371;28;20846;-82
2021/03/27 10:27:40;;;;;;;4.60;2.15;;;8.20;99.90;;;;;;5066282;28;20396;-83
2021/03/27 10:30:26;;;;;;;4.18;1.70;;;7.30;99.90;;;;;;5066196;28;20400;-86
2021/03/27 10:33:01;;;;;;;6.00;2.15;;;7.10;99.90;;;;;;5099331;28;20767;-82
2021/03/27 10:35:36;;;;;;;3.80;2.03;;;7.00;99.90;;;;;;5065948;28;20395;-85
2021/03/27 10:38:34;;;;;;;4.00;2.10;;;7.00;99.90;;;;;;5065028;28;20416;-87
2021/03/27 10:41:15;;;;;;;2.85;1.90;;;7.30;99.90;;;;;;5084713;28;20468;-85
2021/03/27 10:43:56;;;;;;;4.40;2.10;;;7.70;99.90;;;;;;5084781;28;20394;-82
2021/03/27 10:46:44;;;;;;;3.70;2.78;;;8.20;99.90;;;;;;5084376;28;20396;-84
2021/03/27 10:49:15;;;;;;;4.82;2.72;;;8.50;99.90;;;;;;5067505;28;20381;-87
2021/03/27 10:52:15;;;;;;;4.55;2.95;;;8.90;99.90;;;;;;5085561;28;20469;-86
2021/03/27 10:55:06;;;;;;;7.32;3.85;;;9.30;99.90;;;;;;5066829;28;20503;-84
2021/03/27 10:58:09;;;;;;;7.00;3.90;;;9.60;99.90;;;;;;5085415;28;20419;-82
2021/03/27 11:00:56;;;;;;;6.68;4.50;;;9.70;99.90;;;;;;5066441;28;20407;-82
2021/03/27 11:03:40;;;;;;;7.50;4.57;;;9.80;99.90;;;;;;5084640;28;20396;-82
2021/03/27 11:06:24;;;;;;;7.60;4.57;;;10.00;99.90;;;;;;5067712;28;20402;-84
2021/03/27 11:09:18;;;;;;;7.47;5.07;;;10.20;99.90;;;;;;5084261;28;20425;-83
2021/03/27 11:12:18;;;;;;;7.53;4.47;;;10.40;99.90;;;;;;5085144;28;20365;-84
2021/03/27 11:15:22;;;;;;;7.40;4.50;;;10.60;99.90;;;;;;5080314;28;20479;-82
2021/03/27 11:18:31;;;;;;;9.60;4.22;;;10.90;99.90;;;;;;5084784;28;20396;-85
2021/03/27 11:21:21;;;;;;;7.05;3.80;;;10.90;99.90;;;;;;5084048;28;20543;-85
2021/03/27 11:23:58;;;;;;;7.22;3.53;;;11.20;99.90;;;;;;5084378;28;20396;-87
2021/03/27 11:26:54;;;;;;;5.53;3.55;;;11.60;99.90;;;;;;5087330;28;20385;-84
2021/03/27 11:29:58;;;;;;;8.37;3.90;;;12.10;99.90;;;;;;5088923;28;20882;-84
2021/03/27 11:32:42;;;;;;;7.00;3.67;;;12.50;99.90;;;;;;5070855;28;21471;-84
2021/03/27 11:35:36;;;;;;;5.73;3.30;;;12.50;99.90;;;;;;5086399;28;20397;-82
2021/03/27 11:38:27;;;;;;;5.50;2.97;;;12.30;99.90;;;;;;5087407;28;20412;-86
2021/03/27 11:41:02;;;;;;;6.13;3.08;;;12.20;99.90;;;;;;5087590;28;20388;-84
2021/03/27 11:43:57;;;;;;;5.28;3.13;;;12.30;99.90;;;;;;5088099;28;20376;-86
2021/03/27 11:46:36;;;;;;;5.22;3.30;;;12.40;99.90;;;;;;5072459;28;20392;-86
2021/03/27 11:49:02;;;;;;;8.07;3.90;;;12.50;99.90;;;;;;5087074;28;20386;-87
2021/03/27 11:51:35;;;;;;;7.85;3.60;;;12.60;99.90;;;;;;5084221;28;20390;-88
2021/03/27 11:54:22;;;;;;;6.05;3.90;;;12.60;99.90;;;;;;5086182;28;20380;-84
2021/03/27 11:57:16;;;;;;;5.55;4.10;;;12.90;99.90;;;;;;5085751;28;21244;-87
2021/03/27 12:03:25;;;;;;;6.47;4.57;;;12.80;99.90;;;;;;5083978;28;20429;-84
2021/03/27 12:06:04;;;;;;;5.40;4.50;;;12.70;99.90;;;;;;5066396;28;20566;-85
2021/03/27 12:09:06;;;;;;;10.95;5.40;;;12.50;99.90;;;;;;5084001;28;20415;-85
2021/03/27 12:12:10;;;;;;;6.65;4.75;;;12.30;99.90;;;;;;5085046;28;20407;-86
2021/03/27 12:14:53;;;;;;;6.88;4.95;;;12.30;99.90;;;;;;5081569;28;20408;-85
2021/03/27 12:17:32;;;;;;;10.38;5.88;;;12.70;99.90;;;;;;5085308;28;20416;-84
2021/03/27 12:20:08;;;;;;;6.05;5.15;;;13.00;99.90;;;;;;5081922;28;20435;-84
2021/03/27 12:22:45;;;;;;;8.25;5.15;;;13.20;99.90;;;;;;5083790;28;20460;-85
2021/03/27 12:26:00;;;;;;;9.05;5.93;;;12.80;99.90;;;;;;5086017;28;20411;-83
2021/03/27 12:28:36;;;;;;;7.38;4.10;;;12.60;99.90;;;;;;5083586;28;20391;-83
2021/03/27 12:31:17;;;;;;;6.93;3.97;;;12.20;99.90;;;;;;5085253;28;20434;-85
2021/03/27 12:34:03;;;;;;;5.40;2.83;;;12.00;99.90;;;;;;5082629;28;20944;-85
2021/03/27 12:36:37;;;;;;;7.55;2.90;;;11.60;99.90;;;;;;5084265;28;20856;-85
2021/03/27 12:39:17;;;;;;;7.30;2.78;;;11.30;99.90;;;;;;5086424;28;20400;-86
2021/03/27 12:42:01;;;;;;;4.30;2.50;;;10.90;99.90;;;;;;5086318;28;20414;-86
2021/03/27 12:44:39;;;;;;;3.47;2.50;;;10.60;99.90;;;;;;5083586;28;20392;-87
2021/03/27 12:47:36;;;;;;;4.20;2.10;;;10.40;99.90;;;;;;5084461;28;20396;-86
2021/03/27 12:50:06;;;;;;;3.67;1.95;;;10.40;99.90;;;;;;5086631;28;20385;-86
2021/03/27 12:52:50;;;;;;;2.95;1.90;;;10.60;99.90;;;;;;5085822;28;20384;-85
2021/03/27 12:55:37;;;;;;;4.10;2.03;;;10.80;99.90;;;;;;5084663;28;20384;-85
2021/03/27 12:58:08;;;;;;;2.63;1.60;;;11.00;99.90;;;;;;5086520;28;20453;-92
2021/03/27 13:00:53;;;;;;;1.80;1.10;;;11.30;99.90;;;;;;5083922;28;20376;-86
2021/03/27 13:04:08;;;;;;;0.90;0.63;;;11.50;99.90;;;;;;5084571;28;20388;-86
2021/03/27 13:06:56;;;;;;;3.30;1.10;;;11.30;99.90;;;;;;5061846;28;20796;-84
2021/03/27 13:09:28;;;;;;;1.90;1.20;;;11.00;99.90;;;;;;5075708;28;20497;-84
2021/03/27 13:12:11;;;;;;;1.30;1.10;;;11.00;99.90;;;;;;5068277;28;20419;-87
2021/03/27 13:15:10;;;;;;;3.50;1.60;;;10.90;99.90;;;;;;5074960;28;20817;-86
2021/03/27 13:17:48;;;;;;;3.17;1.30;;;10.60;99.90;;;;;;5079491;28;20727;-87
2021/03/27 13:20:25;;;;;;;2.85;1.30;;;10.50;99.90;;;;;;5082023;28;20466;-86
2021/03/27 13:23:11;;;;;;;2.17;1.40;;;10.60;99.90;;;;;;5084743;28;20862;-85
2021/03/27 13:25:48;;;;;;;2.83;1.50;;;10.40;99.90;;;;;;5081811;28;20444;-86
2021/03/27 13:28:24;;;;;;;1.67;1.20;;;10.20;99.90;;;;;;5081693;28;20392;-84
2021/03/27 13:30:55;;;;;;;2.25;1.40;;;10.20;99.90;;;;;;5081321;28;20376;-84
2021/03/27 13:33:37;;;;;;;3.23;1.57;;;10.20;99.90;;;;;;5081842;28;20783;-84
2021/03/27 13:36:14;;;;;;;2.53;1.95;;;10.10;99.90;;;;;;5081341;28;20388;-85
2021/03/27 13:39:08;;;;;;;3.42;1.95;;;9.80;99.90;;;;;;5080840;28;20503;-85
2021/03/27 13:41:36;;;;;;;2.17;1.88;;;9.70;99.90;;;;;;5085531;28;20384;-88
2021/03/27 13:44:40;;;;;;;2.67;1.90;;;9.60;99.90;;;;;;5080496;28;20522;-87
2021/03/27 13:47:20;;;;;;;2.87;1.97;;;9.40;99.90;;;;;;5082939;28;20369;-90
2021/03/27 13:50:20;;;;;;;1.75;1.35;;;9.20;99.90;;;;;;5081727;28;20408;-89
2021/03/27 13:53:18;;;;;;;3.17;1.30;;;8.50;99.90;;;;;;5083543;28;20431;-87
2021/03/27 13:56:08;;;;;;;1.80;1.30;;;8.40;99.90;;;;;;5083186;28;20483;-84
2021/03/27 13:58:50;;;;;;;2.17;1.40;;;8.30;99.90;;;;;;5082357;28;21108;-86
2021/03/27 14:01:34;;;;;;;2.88;1.70;;;8.10;99.90;;;;;;5083133;28;20798;-88
2021/03/27 14:04:43;;;;;;;2.92;2.10;;;8.20;99.90;;;;;;5076262;28;20381;-83
2021/03/27 14:07:33;;;;;;;5.10;2.00;;;8.40;99.90;;;;;;5076924;28;20395;-84
2021/03/27 14:10:06;;;;;;;3.63;2.00;;;8.30;99.90;;;;;;5082799;28;20516;-88
2021/03/27 14:12:35;;;;;;;4.03;2.28;;;;;;;;;;5082825;28;20431;-85
2021/03/27 14:15:01;;;;;;;3.65;2.40;;;;;;;;;;5082123;28;20469;-84
2021/03/27 14:17:41;;;;;;;3.88;2.30;;;;;;;;;;5080479;28;20396;-84